createdAt,value
2018-02-25T00:00:37.809Z,1020.36
2018-02-25T00:01:37.783Z,1020.39
2018-02-25T00:02:37.756Z,1020.4
2018-02-25T00:03:37.728Z,1020.37
2018-02-25T00:04:37.703Z,1020.38
2018-02-25T00:05:37.702Z,1020.34
2018-02-25T00:06:37.650Z,1020.35
2018-02-25T00:07:37.631Z,1020.38
2018-02-25T00:08:37.600Z,1020.35
2018-02-25T00:09:37.573Z,1020.4
2018-02-25T00:10:37.544Z,1020.35
2018-02-25T00:11:37.515Z,1020.4
2018-02-25T00:12:37.492Z,1020.4
2018-02-25T00:13:37.464Z,1020.4
2018-02-25T00:14:37.438Z,1020.38
2018-02-25T00:15:37.413Z,1020.41
2018-02-25T00:16:37.387Z,1020.38
2018-02-25T00:17:37.358Z,1020.42
2018-02-25T00:18:37.333Z,1020.47
2018-02-25T00:19:37.303Z,1020.42
2018-02-25T00:20:37.277Z,1020.41
2018-02-25T00:21:37.249Z,1020.42
2018-02-25T00:22:37.223Z,1020.37
2018-02-25T00:23:37.199Z,1020.38
2018-02-25T00:24:37.169Z,1020.36
2018-02-25T00:25:37.146Z,1020.39
2018-02-25T00:26:37.117Z,1020.49
2018-02-25T00:27:37.089Z,1020.47
2018-02-25T00:28:37.063Z,1020.5
2018-02-25T00:29:37.039Z,1020.51
2018-02-25T00:30:37.012Z,1020.49
2018-02-25T00:31:36.986Z,1020.44
2018-02-25T00:32:36.956Z,1020.5
2018-02-25T00:33:36.929Z,1020.49
2018-02-25T00:34:36.902Z,1020.52
2018-02-25T00:35:36.875Z,1020.43
2018-02-25T00:36:36.849Z,1020.5
2018-02-25T00:37:36.828Z,1020.47
2018-02-25T00:38:36.796Z,1020.46
2018-02-25T00:39:36.769Z,1020.49
2018-02-25T00:40:36.743Z,1020.46
2018-02-25T00:41:36.717Z,1020.39
2018-02-25T00:42:36.690Z,1020.45
2018-02-25T00:43:36.668Z,1020.36
2018-02-25T00:44:36.635Z,1020.41
2018-02-25T00:45:36.608Z,1020.4
2018-02-25T00:46:36.581Z,1020.41
2018-02-25T00:47:36.554Z,1020.45
2018-02-25T00:48:36.531Z,1020.46
2018-02-25T00:49:36.501Z,1020.5
2018-02-25T00:50:36.475Z,1020.53
2018-02-25T00:51:36.447Z,1020.53
2018-02-25T00:52:36.424Z,1020.59
2018-02-25T00:53:36.394Z,1020.6
2018-02-25T00:54:36.367Z,1020.62
2018-02-25T00:55:36.342Z,1020.6
2018-02-25T00:56:36.317Z,1020.55
2018-02-25T00:57:36.287Z,1020.53
2018-02-25T00:58:36.259Z,1020.5
2018-02-25T00:59:36.233Z,1020.51
2018-02-25T01:00:36.263Z,1020.53
2018-02-25T01:01:36.179Z,1020.48
2018-02-25T01:02:36.153Z,1020.51
2018-02-25T01:03:36.126Z,1020.46
2018-02-25T01:04:36.098Z,1020.48
2018-02-25T01:05:36.071Z,1020.44
2018-02-25T01:06:36.055Z,1020.48
2018-02-25T01:07:36.034Z,1020.5
2018-02-25T01:08:35.993Z,1020.51
2018-02-25T01:09:35.971Z,1020.52
2018-02-25T01:10:35.937Z,1020.49
2018-02-25T01:11:35.909Z,1020.46
2018-02-25T01:12:35.884Z,1020.53
2018-02-25T01:13:35.855Z,1020.52
2018-02-25T01:14:35.830Z,1020.52
2018-02-25T01:15:35.803Z,1020.53
2018-02-25T01:16:35.777Z,1020.46
2018-02-25T01:17:35.753Z,1020.47
2018-02-25T01:18:35.725Z,1020.44
2018-02-25T01:19:35.898Z,1020.42
2018-02-25T01:20:35.667Z,1020.47
2018-02-25T01:21:35.640Z,1020.46
2018-02-25T01:22:35.613Z,1020.53
2018-02-25T01:23:35.586Z,1020.5
2018-02-25T01:24:35.559Z,1020.51
2018-02-25T01:25:35.537Z,1020.5
2018-02-25T01:26:35.505Z,1020.51
2018-02-25T01:27:35.480Z,1020.52
2018-02-25T01:28:35.451Z,1020.52
2018-02-25T01:29:35.424Z,1020.53
2018-02-25T01:30:35.399Z,1020.54
2018-02-25T01:31:35.373Z,1020.56
2018-02-25T01:32:35.345Z,1020.51
2018-02-25T01:33:35.315Z,1020.53
2018-02-25T01:34:35.290Z,1020.55
2018-02-25T01:35:35.263Z,1020.56
2018-02-25T01:36:35.235Z,1020.52
2018-02-25T01:37:35.209Z,1020.52
2018-02-25T01:38:35.181Z,1020.54
2018-02-25T01:39:35.154Z,1020.56
2018-02-25T01:40:35.126Z,1020.58
2018-02-25T01:41:35.101Z,1020.6
2018-02-25T01:42:35.072Z,1020.6
2018-02-25T01:43:35.045Z,1020.63
2018-02-25T01:44:35.020Z,1020.69
2018-02-25T01:45:34.996Z,1020.71
2018-02-25T01:46:34.970Z,1020.7
2018-02-25T01:47:34.938Z,1020.69
2018-02-25T01:48:34.912Z,1020.75
2018-02-25T01:49:34.943Z,1020.66
2018-02-25T01:50:34.856Z,1020.63
2018-02-25T01:51:34.829Z,1020.67
2018-02-25T01:52:34.803Z,1020.69
2018-02-25T01:53:34.774Z,1020.68
2018-02-25T01:54:34.748Z,1020.63
2018-02-25T01:55:34.724Z,1020.71
2018-02-25T01:56:34.698Z,1020.68
2018-02-25T01:57:34.666Z,1020.65
2018-02-25T01:58:34.640Z,1020.68
2018-02-25T01:59:34.611Z,1020.67
2018-02-25T02:00:34.584Z,1020.63
2018-02-25T02:01:34.562Z,1020.69
2018-02-25T02:02:34.532Z,1020.71
2018-02-25T02:03:34.503Z,1020.67
2018-02-25T02:04:34.476Z,1020.64
2018-02-25T02:05:34.450Z,1020.63
2018-02-25T02:06:34.422Z,1020.65
2018-02-25T02:07:34.393Z,1020.6
2018-02-25T02:08:34.366Z,1020.57
2018-02-25T02:09:34.338Z,1020.57
2018-02-25T02:10:34.312Z,1020.55
2018-02-25T02:11:34.285Z,1020.57
2018-02-25T02:12:34.260Z,1020.57
2018-02-25T02:13:34.230Z,1020.57
2018-02-25T02:14:34.204Z,1020.55
2018-02-25T02:15:34.174Z,1020.59
2018-02-25T02:16:34.148Z,1020.58
2018-02-25T02:17:34.124Z,1020.58
2018-02-25T02:18:34.092Z,1020.59
2018-02-25T02:19:34.069Z,1020.52
2018-02-25T02:20:34.040Z,1020.53
2018-02-25T02:21:34.011Z,1020.52
2018-02-25T02:22:33.984Z,1020.52
2018-02-25T02:23:33.957Z,1020.51
2018-02-25T02:24:33.930Z,1020.53
2018-02-25T02:25:33.902Z,1020.51
2018-02-25T02:26:33.874Z,1020.54
2018-02-25T02:27:33.848Z,1020.51
2018-02-25T02:28:33.820Z,1020.46
2018-02-25T02:29:33.791Z,1020.52
2018-02-25T02:30:33.765Z,1020.48
2018-02-25T02:31:33.744Z,1020.52
2018-02-25T02:32:33.716Z,1020.53
2018-02-25T02:33:33.681Z,1020.47
2018-02-25T02:34:33.656Z,1020.51
2018-02-25T02:35:33.628Z,1020.51
2018-02-25T02:36:33.601Z,1020.52
2018-02-25T02:37:33.572Z,1020.53
2018-02-25T02:38:33.546Z,1020.54
2018-02-25T02:39:33.519Z,1020.5
2018-02-25T02:40:33.490Z,1020.49
2018-02-25T02:41:33.463Z,1020.52
2018-02-25T02:42:33.436Z,1020.48
2018-02-25T02:43:33.407Z,1020.52
2018-02-25T02:44:33.380Z,1020.48
2018-02-25T02:45:33.354Z,1020.52
2018-02-25T02:46:33.326Z,1020.52
2018-02-25T02:47:33.299Z,1020.55
2018-02-25T02:48:33.272Z,1020.5
2018-02-25T02:49:33.244Z,1020.5
2018-02-25T02:50:33.218Z,1020.55
2018-02-25T02:51:33.189Z,1020.55
2018-02-25T02:52:33.165Z,1020.56
2018-02-25T02:53:33.138Z,1020.54
2018-02-25T02:54:33.108Z,1020.58
2018-02-25T02:55:33.079Z,1020.54
2018-02-25T02:56:33.054Z,1020.55
2018-02-25T02:57:33.024Z,1020.55
2018-02-25T02:58:32.997Z,1020.58
2018-02-25T02:59:33.022Z,1020.6
2018-02-25T03:00:32.941Z,1020.61
2018-02-25T03:01:32.915Z,1020.56
2018-02-25T03:02:32.885Z,1020.64
2018-02-25T03:03:32.864Z,1020.66
2018-02-25T03:04:32.832Z,1020.63
2018-02-25T03:05:32.811Z,1020.57
2018-02-25T03:06:32.777Z,1020.65
2018-02-25T03:07:32.748Z,1020.67
2018-02-25T03:08:32.724Z,1020.69
2018-02-25T03:09:32.693Z,1020.71
2018-02-25T03:10:32.665Z,1020.72
2018-02-25T03:11:32.642Z,1020.77
2018-02-25T03:12:32.611Z,1020.77
2018-02-25T03:13:32.588Z,1020.76
2018-02-25T03:14:32.558Z,1020.74
2018-02-25T03:15:32.529Z,1020.78
2018-02-25T03:16:32.502Z,1020.74
2018-02-25T03:17:32.474Z,1020.81
2018-02-25T03:18:32.444Z,1020.75
2018-02-25T03:19:32.625Z,1020.77
2018-02-25T03:20:32.390Z,1020.81
2018-02-25T03:21:32.364Z,1020.81
2018-02-25T03:22:32.336Z,1020.85
2018-02-25T03:23:32.312Z,1020.8
2018-02-25T03:24:32.278Z,1020.88
2018-02-25T03:25:32.258Z,1020.82
2018-02-25T03:26:32.226Z,1020.85
2018-02-25T03:27:32.205Z,1020.9
2018-02-25T03:28:32.171Z,1020.92
2018-02-25T03:29:32.143Z,1020.9
2018-02-25T03:30:32.117Z,1020.98
2018-02-25T03:31:32.088Z,1020.95
2018-02-25T03:32:32.058Z,1020.98
2018-02-25T03:33:32.034Z,1021.01
2018-02-25T03:34:32.006Z,1020.96
2018-02-25T03:35:31.978Z,1020.96
2018-02-25T03:36:31.947Z,1020.99
2018-02-25T03:37:31.923Z,1021.02
2018-02-25T03:38:31.896Z,1020.99
2018-02-25T03:39:31.866Z,1021.05
2018-02-25T03:40:31.838Z,1021.05
2018-02-25T03:41:31.813Z,1021.04
2018-02-25T03:42:31.787Z,1021.09
2018-02-25T03:43:31.755Z,1021.09
2018-02-25T03:44:31.729Z,1021.08
2018-02-25T03:45:31.700Z,1021.14
2018-02-25T03:46:31.675Z,1021.15
2018-02-25T03:47:31.644Z,1021.14
2018-02-25T03:48:31.616Z,1021.17
2018-02-25T03:49:31.589Z,1021.18
2018-02-25T03:50:31.563Z,1021.15
2018-02-25T03:51:31.537Z,1021.21
2018-02-25T03:52:31.508Z,1021.17
2018-02-25T03:53:31.477Z,1021.2
2018-02-25T03:54:31.459Z,1021.23
2018-02-25T03:55:31.422Z,1021.26
2018-02-25T03:56:31.395Z,1021.28
2018-02-25T03:57:31.366Z,1021.31
2018-02-25T03:58:31.338Z,1021.32
2018-02-25T03:59:31.316Z,1021.33
2018-02-25T04:00:31.284Z,1021.33
2018-02-25T04:01:31.256Z,1021.35
2018-02-25T04:02:31.227Z,1021.37
2018-02-25T04:03:31.203Z,1021.33
2018-02-25T04:04:31.176Z,1021.38
2018-02-25T04:05:31.144Z,1021.38
2018-02-25T04:06:31.123Z,1021.4
2018-02-25T04:07:31.089Z,1021.42
2018-02-25T04:08:31.081Z,1021.39
2018-02-25T04:09:31.083Z,1021.34
2018-02-25T04:10:31.017Z,1021.33
2018-02-25T04:11:30.995Z,1021.32
2018-02-25T04:12:30.962Z,1021.35
2018-02-25T04:13:30.921Z,1021.32
2018-02-25T04:14:30.894Z,1021.36
2018-02-25T04:15:30.865Z,1021.39
2018-02-25T04:16:30.838Z,1021.39
2018-02-25T04:17:30.808Z,1021.4
2018-02-25T04:18:30.783Z,1021.39
2018-02-25T04:19:30.755Z,1021.43
2018-02-25T04:20:30.727Z,1021.44
2018-02-25T04:21:30.705Z,1021.44
2018-02-25T04:22:30.670Z,1021.37
2018-02-25T04:23:30.641Z,1021.42
2018-02-25T04:24:30.614Z,1021.42
2018-02-25T04:25:30.585Z,1021.42
2018-02-25T04:26:30.558Z,1021.42
2018-02-25T04:27:30.532Z,1021.4
2018-02-25T04:28:30.503Z,1021.41
2018-02-25T04:29:30.477Z,1021.41
2018-02-25T04:30:30.447Z,1021.44
2018-02-25T04:31:30.419Z,1021.49
2018-02-25T04:32:30.389Z,1021.5
2018-02-25T04:33:30.364Z,1021.47
2018-02-25T04:34:30.336Z,1021.52
2018-02-25T04:35:30.308Z,1021.54
2018-02-25T04:36:30.278Z,1021.52
2018-02-25T04:37:30.253Z,1021.59
2018-02-25T04:38:30.223Z,1021.57
2018-02-25T04:39:30.193Z,1021.55
2018-02-25T04:40:30.167Z,1021.55
2018-02-25T04:41:30.139Z,1021.52
2018-02-25T04:42:30.112Z,1021.58
2018-02-25T04:43:30.084Z,1021.57
2018-02-25T04:44:30.057Z,1021.55
2018-02-25T04:45:30.028Z,1021.55
2018-02-25T04:46:30.020Z,1021.57
2018-02-25T04:47:29.977Z,1021.55
2018-02-25T04:48:29.943Z,1021.53
2018-02-25T04:49:29.917Z,1021.53
2018-02-25T04:50:29.890Z,1021.62
2018-02-25T04:51:29.861Z,1021.57
2018-02-25T04:52:29.831Z,1021.6
2018-02-25T04:53:29.802Z,1021.58
2018-02-25T04:54:29.781Z,1021.58
2018-02-25T04:55:29.756Z,1021.59
2018-02-25T04:56:29.720Z,1021.56
2018-02-25T04:57:29.704Z,1021.54
2018-02-25T04:58:29.673Z,1021.53
2018-02-25T04:59:29.636Z,1021.48
2018-02-25T05:00:29.612Z,1021.5
2018-02-25T05:01:29.578Z,1021.44
2018-02-25T05:02:29.553Z,1021.42
2018-02-25T05:03:29.524Z,1021.48
2018-02-25T05:04:29.495Z,1021.46
2018-02-25T05:05:29.466Z,1021.43
2018-02-25T05:06:29.439Z,1021.45
2018-02-25T05:07:29.415Z,1021.39
2018-02-25T05:08:29.384Z,1021.42
2018-02-25T05:09:29.354Z,1021.39
2018-02-25T05:10:29.325Z,1021.38
2018-02-25T05:11:29.298Z,1021.43
2018-02-25T05:12:29.269Z,1021.38
2018-02-25T05:13:29.242Z,1021.41
2018-02-25T05:14:29.213Z,1021.37
2018-02-25T05:15:29.184Z,1021.39
2018-02-25T05:16:29.157Z,1021.35
2018-02-25T05:17:29.126Z,1021.34
2018-02-25T05:18:29.104Z,1021.34
2018-02-25T05:19:29.273Z,1021.39
2018-02-25T05:20:29.087Z,1021.34
2018-02-25T05:21:29.017Z,1021.34
2018-02-25T05:22:28.987Z,1021.39
2018-02-25T05:23:28.957Z,1021.39
2018-02-25T05:24:28.930Z,1021.35
2018-02-25T05:25:28.903Z,1021.41
2018-02-25T05:26:28.879Z,1021.39
2018-02-25T05:27:28.904Z,1021.38
2018-02-25T05:28:28.819Z,1021.37
2018-02-25T05:29:28.790Z,1021.32
2018-02-25T05:30:28.761Z,1021.36
2018-02-25T05:31:28.734Z,1021.34
2018-02-25T05:32:28.706Z,1021.32
2018-02-25T05:33:28.677Z,1021.33
2018-02-25T05:34:28.649Z,1021.36
2018-02-25T05:35:28.624Z,1021.37
2018-02-25T05:36:28.592Z,1021.38
2018-02-25T05:37:28.563Z,1021.37
2018-02-25T05:38:28.533Z,1021.43
2018-02-25T05:39:28.506Z,1021.4
2018-02-25T05:40:28.478Z,1021.39
2018-02-25T05:41:28.451Z,1021.37
2018-02-25T05:42:28.422Z,1021.42
2018-02-25T05:43:28.393Z,1021.44
2018-02-25T05:44:28.368Z,1021.42
2018-02-25T05:45:28.341Z,1021.43
2018-02-25T05:46:28.311Z,1021.47
2018-02-25T05:47:28.281Z,1021.49
2018-02-25T05:48:28.252Z,1021.47
2018-02-25T05:49:28.233Z,1021.48
2018-02-25T05:50:28.196Z,1021.46
2018-02-25T05:51:28.167Z,1021.48
2018-02-25T05:52:28.138Z,1021.51
2018-02-25T05:53:28.110Z,1021.47
2018-02-25T05:54:28.083Z,1021.44
2018-02-25T05:55:28.058Z,1021.45
2018-02-25T05:56:28.026Z,1021.51
2018-02-25T05:57:28.004Z,1021.51
2018-02-25T05:58:27.968Z,1021.5
2018-02-25T05:59:27.944Z,1021.51
2018-02-25T06:00:27.912Z,1021.5
2018-02-25T06:01:27.883Z,1021.54
2018-02-25T06:02:27.857Z,1021.51
2018-02-25T06:03:27.828Z,1021.5
2018-02-25T06:04:27.800Z,1021.48
2018-02-25T06:05:27.770Z,1021.54
2018-02-25T06:06:27.743Z,1021.53
2018-02-25T06:07:27.714Z,1021.5
2018-02-25T06:08:27.686Z,1021.54
2018-02-25T06:09:27.658Z,1021.59
2018-02-25T06:10:27.630Z,1021.55
2018-02-25T06:11:27.605Z,1021.57
2018-02-25T06:12:27.571Z,1021.54
2018-02-25T06:13:27.544Z,1021.59
2018-02-25T06:14:27.515Z,1021.58
2018-02-25T06:15:27.488Z,1021.59
2018-02-25T06:16:27.458Z,1021.63
2018-02-25T06:17:27.431Z,1021.63
2018-02-25T06:18:27.403Z,1021.65
2018-02-25T06:19:27.373Z,1021.66
2018-02-25T06:20:27.346Z,1021.67
2018-02-25T06:21:27.317Z,1021.66
2018-02-25T06:22:27.289Z,1021.7
2018-02-25T06:23:27.259Z,1021.68
2018-02-25T06:24:27.231Z,1021.66
2018-02-25T06:25:27.205Z,1021.68
2018-02-25T06:26:27.176Z,1021.72
2018-02-25T06:27:27.148Z,1021.71
2018-02-25T06:28:27.121Z,1021.72
2018-02-25T06:29:27.096Z,1021.7
2018-02-25T06:30:27.060Z,1021.74
2018-02-25T06:31:27.037Z,1021.72
2018-02-25T06:32:27.006Z,1021.78
2018-02-25T06:33:26.981Z,1021.78
2018-02-25T06:34:26.950Z,1021.82
2018-02-25T06:35:26.922Z,1021.79
2018-02-25T06:36:26.893Z,1021.8
2018-02-25T06:37:26.864Z,1021.81
2018-02-25T06:38:26.835Z,1021.84
2018-02-25T06:39:26.805Z,1021.87
2018-02-25T06:40:26.778Z,1021.81
2018-02-25T06:41:26.747Z,1021.83
2018-02-25T06:42:26.728Z,1021.87
2018-02-25T06:43:26.700Z,1021.88
2018-02-25T06:44:26.666Z,1021.89
2018-02-25T06:45:26.635Z,1021.84
2018-02-25T06:46:26.611Z,1021.89
2018-02-25T06:47:26.578Z,1021.86
2018-02-25T06:48:26.553Z,1021.81
2018-02-25T06:49:26.524Z,1021.87
2018-02-25T06:50:26.492Z,1021.85
2018-02-25T06:51:26.467Z,1021.83
2018-02-25T06:52:26.435Z,1021.85
2018-02-25T06:53:26.409Z,1021.89
2018-02-25T06:54:26.381Z,1021.82
2018-02-25T06:55:26.351Z,1021.86
2018-02-25T06:56:26.324Z,1021.86
2018-02-25T06:57:26.293Z,1021.86
2018-02-25T06:58:26.266Z,1021.84
2018-02-25T06:59:26.242Z,1021.84
2018-02-25T07:00:26.208Z,1021.82
2018-02-25T07:01:26.182Z,1021.89
2018-02-25T07:02:26.154Z,1021.9
2018-02-25T07:03:26.124Z,1021.9
2018-02-25T07:04:26.103Z,1021.93
2018-02-25T07:05:26.068Z,1021.93
2018-02-25T07:06:26.039Z,1021.9
2018-02-25T07:07:26.016Z,1021.96
2018-02-25T07:08:25.982Z,1021.98
2018-02-25T07:09:25.965Z,1021.96
2018-02-25T07:10:25.925Z,1021.97
2018-02-25T07:11:25.902Z,1022
2018-02-25T07:12:25.869Z,1022.03
2018-02-25T07:13:25.841Z,1022.03
2018-02-25T07:14:25.837Z,1022.06
2018-02-25T07:15:25.785Z,1022.01
2018-02-25T07:16:25.757Z,1022.05
2018-02-25T07:17:25.729Z,1022.04
2018-02-25T07:18:25.699Z,1022.06
2018-02-25T07:19:25.674Z,1022.07
2018-02-25T07:20:25.643Z,1022.03
2018-02-25T07:21:25.618Z,1022.05
2018-02-25T07:22:25.602Z,1022
2018-02-25T07:23:25.558Z,1022.05
2018-02-25T07:24:25.531Z,1022.03
2018-02-25T07:25:25.502Z,1022.07
2018-02-25T07:26:25.474Z,1022.05
2018-02-25T07:27:25.445Z,1022.1
2018-02-25T07:28:25.419Z,1022.11
2018-02-25T07:29:25.389Z,1022.14
2018-02-25T07:30:25.362Z,1022.11
2018-02-25T07:31:25.334Z,1022.12
2018-02-25T07:32:25.312Z,1022.13
2018-02-25T07:33:25.285Z,1022.1
2018-02-25T07:34:25.248Z,1022.12
2018-02-25T07:35:25.222Z,1022.14
2018-02-25T07:36:25.200Z,1022.17
2018-02-25T07:37:25.165Z,1022.15
2018-02-25T07:38:25.139Z,1022.21
2018-02-25T07:39:25.108Z,1022.21
2018-02-25T07:40:25.081Z,1022.22
2018-02-25T07:41:25.052Z,1022.21
2018-02-25T07:42:25.045Z,1022.19
2018-02-25T07:43:24.998Z,1022.21
2018-02-25T07:44:24.971Z,1022.24
2018-02-25T07:45:24.942Z,1022.25
2018-02-25T07:46:24.914Z,1022.26
2018-02-25T07:47:24.891Z,1022.24
2018-02-25T07:48:24.909Z,1022.22
2018-02-25T07:49:24.830Z,1022.24
2018-02-25T07:50:24.807Z,1022.23
2018-02-25T07:51:24.783Z,1022.21
2018-02-25T07:52:24.746Z,1022.21
2018-02-25T07:53:24.722Z,1022.28
2018-02-25T07:54:24.696Z,1022.24
2018-02-25T07:55:24.667Z,1022.25
2018-02-25T07:56:24.639Z,1022.18
2018-02-25T07:57:24.609Z,1022.25
2018-02-25T07:58:24.585Z,1022.24
2018-02-25T07:59:24.561Z,1022.24
2018-02-25T08:00:24.529Z,1022.19
2018-02-25T08:01:24.502Z,1022.19
2018-02-25T08:02:24.472Z,1022.25
2018-02-25T08:03:24.464Z,1022.23
2018-02-25T08:04:24.416Z,1022.26
2018-02-25T08:05:24.388Z,1022.27
2018-02-25T08:06:24.360Z,1022.27
2018-02-25T08:07:24.333Z,1022.33
2018-02-25T08:08:24.347Z,1022.3
2018-02-25T08:09:24.288Z,1022.27
2018-02-25T08:10:24.250Z,1022.34
2018-02-25T08:11:24.224Z,1022.31
2018-02-25T08:12:24.198Z,1022.31
2018-02-25T08:13:24.170Z,1022.31
2018-02-25T08:14:24.141Z,1022.3
2018-02-25T08:15:24.112Z,1022.33
2018-02-25T08:16:24.086Z,1022.31
2018-02-25T08:17:24.058Z,1022.38
2018-02-25T08:18:24.031Z,1022.32
2018-02-25T08:19:24.006Z,1022.35
2018-02-25T08:20:23.976Z,1022.38
2018-02-25T08:21:23.947Z,1022.39
2018-02-25T08:22:23.926Z,1022.39
2018-02-25T08:23:23.893Z,1022.39
2018-02-25T08:24:23.905Z,1022.41
2018-02-25T08:25:23.840Z,1022.45
2018-02-25T08:26:23.815Z,1022.54
2018-02-25T08:27:23.786Z,1022.58
2018-02-25T08:28:23.760Z,1022.56
2018-02-25T08:29:23.733Z,1022.56
2018-02-25T08:30:23.707Z,1022.57
2018-02-25T08:31:23.679Z,1022.5
2018-02-25T08:32:23.654Z,1022.64
2018-02-25T08:33:23.629Z,1022.63
2018-02-25T08:34:23.606Z,1022.61
2018-02-25T08:35:23.592Z,1022.57
2018-02-25T08:36:23.553Z,1022.5
2018-02-25T08:37:23.539Z,1022.49
2018-02-25T08:38:23.503Z,1022.54
2018-02-25T08:39:23.479Z,1022.54
2018-02-25T08:40:23.456Z,1022.66
2018-02-25T08:41:23.432Z,1022.69
2018-02-25T08:42:23.411Z,1022.71
2018-02-25T08:43:23.382Z,1022.71
2018-02-25T08:44:23.360Z,1022.72
2018-02-25T08:45:23.338Z,1022.77
2018-02-25T08:46:23.312Z,1022.82
2018-02-25T08:47:23.293Z,1022.79
2018-02-25T08:48:23.268Z,1022.8
2018-02-25T08:49:23.294Z,1022.84
2018-02-25T08:50:23.224Z,1022.76
2018-02-25T08:51:23.206Z,1022.72
2018-02-25T08:52:23.179Z,1022.8
2018-02-25T08:53:23.158Z,1022.79
2018-02-25T08:54:23.137Z,1022.79
2018-02-25T08:55:23.120Z,1022.7
2018-02-25T08:56:23.096Z,1022.7
2018-02-25T08:57:23.083Z,1022.73
2018-02-25T08:58:23.056Z,1022.72
2018-02-25T08:59:23.038Z,1022.75
2018-02-25T09:00:23.018Z,1022.78
2018-02-25T09:01:22.996Z,1022.74
2018-02-25T09:02:22.982Z,1022.78
2018-02-25T09:03:22.955Z,1022.81
2018-02-25T09:04:22.935Z,1022.72
2018-02-25T09:05:22.969Z,1022.71
2018-02-25T09:06:22.899Z,1022.68
2018-02-25T09:07:22.878Z,1022.63
2018-02-25T09:08:22.861Z,1022.62
2018-02-25T09:09:22.840Z,1022.66
2018-02-25T09:10:22.818Z,1022.67
2018-02-25T09:11:22.800Z,1022.6
2018-02-25T09:12:22.780Z,1022.59
2018-02-25T09:13:22.762Z,1022.65
2018-02-25T09:14:22.747Z,1022.62
2018-02-25T09:15:22.722Z,1022.67
2018-02-25T09:16:22.709Z,1022.67
2018-02-25T09:17:22.684Z,1022.61
2018-02-25T09:18:22.666Z,1022.6
2018-02-25T09:19:22.645Z,1022.64
2018-02-25T09:20:22.829Z,1022.62
2018-02-25T09:21:22.604Z,1022.65
2018-02-25T09:22:22.589Z,1022.69
2018-02-25T09:23:22.566Z,1022.63
2018-02-25T09:24:22.546Z,1022.62
2018-02-25T09:25:22.533Z,1022.57
2018-02-25T09:26:22.512Z,1022.51
2018-02-25T09:27:22.489Z,1022.57
2018-02-25T09:28:22.471Z,1022.56
2018-02-25T09:29:22.448Z,1022.53
2018-02-25T09:30:22.430Z,1022.56
2018-02-25T09:31:22.409Z,1022.55
2018-02-25T09:32:22.391Z,1022.58
2018-02-25T09:33:22.368Z,1022.59
2018-02-25T09:34:22.353Z,1022.55
2018-02-25T09:35:22.331Z,1022.59
2018-02-25T09:36:22.314Z,1022.65
2018-02-25T09:37:22.290Z,1022.59
2018-02-25T09:38:22.269Z,1022.53
2018-02-25T09:39:22.249Z,1022.55
2018-02-25T09:40:22.233Z,1022.59
2018-02-25T09:41:22.227Z,1022.55
2018-02-25T09:42:22.188Z,1022.56
2018-02-25T09:43:22.171Z,1022.61
2018-02-25T09:44:22.151Z,1022.56
2018-02-25T09:45:22.127Z,1022.5
2018-02-25T09:46:22.107Z,1022.55
2018-02-25T09:47:22.088Z,1022.63
2018-02-25T09:48:22.067Z,1022.62
2018-02-25T09:49:22.061Z,1022.66
2018-02-25T09:50:22.031Z,1022.65
2018-02-25T09:51:22.011Z,1022.59
2018-02-25T09:52:21.987Z,1022.63
2018-02-25T09:53:21.969Z,1022.62
2018-02-25T09:54:22.011Z,1022.63
2018-02-25T09:55:21.932Z,1022.61
2018-02-25T09:56:21.911Z,1022.62
2018-02-25T09:57:21.893Z,1022.63
2018-02-25T09:58:21.875Z,1022.63
2018-02-25T09:59:21.863Z,1022.56
2018-02-25T10:00:21.840Z,1022.57
2018-02-25T10:01:21.822Z,1022.59
2018-02-25T10:02:21.804Z,1022.52
2018-02-25T10:03:21.781Z,1022.56
2018-02-25T10:04:21.770Z,1022.55
2018-02-25T10:05:21.754Z,1022.51
2018-02-25T10:06:21.725Z,1022.53
2018-02-25T10:07:21.707Z,1022.49
2018-02-25T10:08:21.688Z,1022.47
2018-02-25T10:09:21.670Z,1022.52
2018-02-25T10:10:21.651Z,1022.51
2018-02-25T10:11:21.631Z,1022.51
2018-02-25T10:12:21.616Z,1022.49
2018-02-25T10:13:21.590Z,1022.5
2018-02-25T10:14:21.592Z,1022.55
2018-02-25T10:15:21.551Z,1022.49
2018-02-25T10:16:21.531Z,1022.56
2018-02-25T10:17:21.510Z,1022.53
2018-02-25T10:18:21.490Z,1022.51
2018-02-25T10:19:21.470Z,1022.54
2018-02-25T10:20:21.452Z,1022.55
2018-02-25T10:21:21.430Z,1022.53
2018-02-25T10:22:21.414Z,1022.54
2018-02-25T10:23:21.393Z,1022.51
2018-02-25T10:24:21.373Z,1022.47
2018-02-25T10:25:21.356Z,1022.5
2018-02-25T10:26:21.336Z,1022.46
2018-02-25T10:27:21.317Z,1022.43
2018-02-25T10:28:21.301Z,1022.38
2018-02-25T10:29:21.281Z,1022.45
2018-02-25T10:30:21.261Z,1022.39
2018-02-25T10:31:21.244Z,1022.39
2018-02-25T10:32:21.224Z,1022.42
2018-02-25T10:33:21.205Z,1022.38
2018-02-25T10:34:21.188Z,1022.35
2018-02-25T10:35:21.169Z,1022.35
2018-02-25T10:36:21.214Z,1022.39
2018-02-25T10:37:21.134Z,1022.36
2018-02-25T10:38:21.111Z,1022.39
2018-02-25T10:39:21.102Z,1022.36
2018-02-25T10:40:21.074Z,1022.41
2018-02-25T10:41:21.053Z,1022.39
2018-02-25T10:42:21.038Z,1022.35
2018-02-25T10:43:21.023Z,1022.36
2018-02-25T10:44:20.996Z,1022.37
2018-02-25T10:45:20.980Z,1022.42
2018-02-25T10:46:20.959Z,1022.36
2018-02-25T10:47:20.941Z,1022.36
2018-02-25T10:48:20.925Z,1022.36
2018-02-25T10:49:20.904Z,1022.36
2018-02-25T10:50:20.887Z,1022.32
2018-02-25T10:51:20.867Z,1022.27
2018-02-25T10:52:20.853Z,1022.32
2018-02-25T10:53:20.833Z,1022.3
2018-02-25T10:54:20.822Z,1022.3
2018-02-25T10:55:20.795Z,1022.22
2018-02-25T10:56:20.781Z,1022.24
2018-02-25T10:57:20.762Z,1022.3
2018-02-25T10:58:20.745Z,1022.32
2018-02-25T10:59:20.724Z,1022.42
2018-02-25T11:00:20.724Z,1022.53
2018-02-25T11:01:20.692Z,1022.55
2018-02-25T11:02:20.683Z,1022.51
2018-02-25T11:03:20.662Z,1022.39
2018-02-25T11:04:20.653Z,1022.46
2018-02-25T11:05:20.630Z,1022.57
2018-02-25T11:06:20.602Z,1022.61
2018-02-25T11:07:20.584Z,1022.52
2018-02-25T11:08:20.566Z,1022.49
2018-02-25T11:09:20.551Z,1022.41
2018-02-25T11:10:20.548Z,1022.49
2018-02-25T11:11:20.518Z,1022.36
2018-02-25T11:12:20.499Z,1022.26
2018-02-25T11:13:20.486Z,1022.2
2018-02-25T11:14:20.468Z,1022.16
2018-02-25T11:15:20.450Z,1022.16
2018-02-25T11:16:20.433Z,1022.12
2018-02-25T11:17:20.418Z,1022.07
2018-02-25T11:18:20.403Z,1022.07
2018-02-25T11:19:20.381Z,1022.04
2018-02-25T11:20:20.568Z,1022.09
2018-02-25T11:21:20.350Z,1022.05
2018-02-25T11:22:20.335Z,1022.03
2018-02-25T11:23:20.323Z,1022.1
2018-02-25T11:24:20.300Z,1022.04
2018-02-25T11:25:20.285Z,1022.03
2018-02-25T11:26:20.268Z,1022.02
2018-02-25T11:27:20.251Z,1021.95
2018-02-25T11:28:20.235Z,1021.94
2018-02-25T11:29:20.222Z,1021.99
2018-02-25T11:30:20.203Z,1021.92
2018-02-25T11:31:20.309Z,1021.89
2018-02-25T11:32:20.179Z,1021.82
2018-02-25T11:33:20.161Z,1021.84
2018-02-25T11:34:20.149Z,1021.79
2018-02-25T11:35:20.130Z,1021.79
2018-02-25T11:36:20.122Z,1021.81
2018-02-25T11:37:20.103Z,1021.79
2018-02-25T11:38:20.088Z,1021.77
2018-02-25T11:39:20.073Z,1021.8
2018-02-25T11:40:20.065Z,1021.86
2018-02-25T11:41:20.046Z,1021.78
2018-02-25T11:42:20.036Z,1021.77
2018-02-25T11:43:20.017Z,1021.76
2018-02-25T11:44:20.002Z,1021.71
2018-02-25T11:45:19.991Z,1021.68
2018-02-25T11:46:19.973Z,1021.67
2018-02-25T11:47:19.965Z,1021.67
2018-02-25T11:48:19.946Z,1021.64
2018-02-25T11:49:19.932Z,1021.66
2018-02-25T11:50:19.919Z,1021.63
2018-02-25T11:51:19.911Z,1021.61
2018-02-25T11:52:19.894Z,1021.58
2018-02-25T11:53:19.880Z,1021.58
2018-02-25T11:54:19.878Z,1021.57
2018-02-25T11:55:19.900Z,1021.6
2018-02-25T11:56:19.841Z,1021.62
2018-02-25T11:57:19.827Z,1021.58
2018-02-25T11:58:19.824Z,1021.58
2018-02-25T11:59:19.809Z,1021.59
2018-02-25T12:00:19.796Z,1021.61
2018-02-25T12:01:19.780Z,1021.56
2018-02-25T12:02:19.767Z,1021.59
2018-02-25T12:03:19.753Z,1021.56
2018-02-25T12:04:19.742Z,1021.57
2018-02-25T12:05:19.733Z,1021.54
2018-02-25T12:06:19.719Z,1021.51
2018-02-25T12:07:19.706Z,1021.55
2018-02-25T12:08:19.692Z,1021.53